sensor_id;sensor_type;location;lat;lon;timestamp;temperature;humidity
23885;DHT22;12123;53.088;7.392;2022-07-23T00:00:12;20.60;99.90
23885;DHT22;12123;53.088;7.392;2022-07-23T00:02:39;20.70;99.90
23885;DHT22;12123;53.088;7.392;2022-07-23T00:05:06;20.80;99.90
23885;DHT22;12123;53.088;7.392;2022-07-23T00:07:33;20.70;99.90
23885;DHT22;12123;53.088;7.392;2022-07-23T00:10:00;20.70;99.90
23885;DHT22;12123;53.088;7.392;2022-07-23T00:12:26;20.70;99.90
23885;DHT22;12123;53.088;7.392;2022-07-23T00:14:53;20.70;99.90
23885;DHT22;12123;53.088;7.392;2022-07-23T00:17:20;20.70;99.90
23885;DHT22;12123;53.088;7.392;2022-07-23T00:19:47;20.60;99.90
23885;DHT22;12123;53.088;7.392;2022-07-23T00:22:13;20.50;99.90
23885;DHT22;12123;53.088;7.392;2022-07-23T00:24:40;20.60;99.90
23885;DHT22;12123;53.088;7.392;2022-07-23T00:27:07;20.50;99.90
23885;DHT22;12123;53.088;7.392;2022-07-23T00:29:34;20.50;99.90
23885;DHT22;12123;53.088;7.392;2022-07-23T00:32:00;20.50;99.90
23885;DHT22;12123;53.088;7.392;2022-07-23T00:34:27;20.50;99.90
23885;DHT22;12123;53.088;7.392;2022-07-23T00:36:54;20.40;99.90
23885;DHT22;12123;53.088;7.392;2022-07-23T00:39:20;20.30;99.90
23885;DHT22;12123;53.088;7.392;2022-07-23T00:41:49;20.50;99.90
23885;DHT22;12123;53.088;7.392;2022-07-23T00:46:46;20.40;99.90
23885;DHT22;12123;53.088;7.392;2022-07-23T00:49:13;20.60;99.90
23885;DHT22;12123;53.088;7.392;2022-07-23T00:51:40;20.60;99.90
23885;DHT22;12123;53.088;7.392;2022-07-23T00:54:07;20.60;99.90
23885;DHT22;12123;53.088;7.392;2022-07-23T00:56:34;20.70;99.90
23885;DHT22;12123;53.088;7.392;2022-07-23T00:59:00;20.70;99.90
23885;DHT22;12123;53.088;7.392;2022-07-23T01:01:28;20.60;99.90
23885;DHT22;12123;53.088;7.392;2022-07-23T01:03:55;20.50;99.90
23885;DHT22;12123;53.088;7.392;2022-07-23T01:06:22;20.60;99.90
23885;DHT22;12123;53.088;7.392;2022-07-23T01:08:49;20.60;99.90
23885;DHT22;12123;53.088;7.392;2022-07-23T01:11:16;20.60;99.90
23885;DHT22;12123;53.088;7.392;2022-07-23T01:13:44;20.60;99.90
23885;DHT22;12123;53.088;7.392;2022-07-23T01:16:11;20.60;99.90
23885;DHT22;12123;53.088;7.392;2022-07-23T01:18:38;20.60;99.90
23885;DHT22;12123;53.088;7.392;2022-07-23T01:21:05;20.60;99.90
23885;DHT22;12123;53.088;7.392;2022-07-23T01:23:31;20.60;99.90
23885;DHT22;12123;53.088;7.392;2022-07-23T01:25:58;20.50;99.90
23885;DHT22;12123;53.088;7.392;2022-07-23T01:28:25;20.50;99.90
23885;DHT22;12123;53.088;7.392;2022-07-23T01:30:52;20.40;99.90
23885;DHT22;12123;53.088;7.392;2022-07-23T01:33:18;20.40;99.90
23885;DHT22;12123;53.088;7.392;2022-07-23T01:35:45;20.40;99.90
23885;DHT22;12123;53.088;7.392;2022-07-23T01:38:12;20.40;99.90
23885;DHT22;12123;53.088;7.392;2022-07-23T01:40:38;20.30;99.90
23885;DHT22;12123;53.088;7.392;2022-07-23T01:43:05;20.40;99.90
23885;DHT22;12123;53.088;7.392;2022-07-23T01:45:33;20.30;99.90
23885;DHT22;12123;53.088;7.392;2022-07-23T01:48:00;20.40;99.90
23885;DHT22;12123;53.088;7.392;2022-07-23T01:50:27;20.40;99.90
23885;DHT22;12123;53.088;7.392;2022-07-23T01:52:54;20.40;99.90
23885;DHT22;12123;53.088;7.392;2022-07-23T01:55:21;20.40;99.90
23885;DHT22;12123;53.088;7.392;2022-07-23T01:57:47;20.40;99.90
23885;DHT22;12123;53.088;7.392;2022-07-23T02:00:14;20.50;99.90
23885;DHT22;12123;53.088;7.392;2022-07-23T02:02:41;20.50;99.90
23885;DHT22;12123;53.088;7.392;2022-07-23T02:05:08;20.60;99.90
23885;DHT22;12123;53.088;7.392;2022-07-23T02:07:35;20.60;99.90
23885;DHT22;12123;53.088;7.392;2022-07-23T02:10:02;20.60;99.90
23885;DHT22;12123;53.088;7.392;2022-07-23T02:12:28;20.70;99.90
23885;DHT22;12123;53.088;7.392;2022-07-23T02:14:55;20.60;99.90
23885;DHT22;12123;53.088;7.392;2022-07-23T02:17:22;20.70;99.90
23885;DHT22;12123;53.088;7.392;2022-07-23T02:19:48;20.70;99.90
23885;DHT22;12123;53.088;7.392;2022-07-23T02:22:15;20.80;99.90
23885;DHT22;12123;53.088;7.392;2022-07-23T02:24:42;20.70;99.90
23885;DHT22;12123;53.088;7.392;2022-07-23T02:27:09;20.80;99.90
23885;DHT22;12123;53.088;7.392;2022-07-23T02:29:35;20.90;99.90
23885;DHT22;12123;53.088;7.392;2022-07-23T02:32:02;21.00;99.90
23885;DHT22;12123;53.088;7.392;2022-07-23T02:34:29;21.10;99.90
23885;DHT22;12123;53.088;7.392;2022-07-23T02:36:56;21.10;99.90
23885;DHT22;12123;53.088;7.392;2022-07-23T02:39:22;21.20;99.90
23885;DHT22;12123;53.088;7.392;2022-07-23T02:41:49;21.20;99.90
23885;DHT22;12123;53.088;7.392;2022-07-23T02:44:16;21.30;99.90
23885;DHT22;12123;53.088;7.392;2022-07-23T02:46:42;21.30;99.90
23885;DHT22;12123;53.088;7.392;2022-07-23T02:49:09;21.40;99.90
23885;DHT22;12123;53.088;7.392;2022-07-23T02:51:36;21.50;99.90
23885;DHT22;12123;53.088;7.392;2022-07-23T02:54:03;21.50;99.90
23885;DHT22;12123;53.088;7.392;2022-07-23T02:56:30;21.50;99.90
23885;DHT22;12123;53.088;7.392;2022-07-23T02:58:57;21.60;99.90
23885;DHT22;12123;53.088;7.392;2022-07-23T03:01:24;21.60;99.90
23885;DHT22;12123;53.088;7.392;2022-07-23T03:03:51;21.60;99.90
23885;DHT22;12123;53.088;7.392;2022-07-23T03:06:18;21.70;99.90
23885;DHT22;12123;53.088;7.392;2022-07-23T03:08:45;21.80;99.90
23885;DHT22;12123;53.088;7.392;2022-07-23T03:11:12;21.80;99.90
23885;DHT22;12123;53.088;7.392;2022-07-23T03:13:39;21.80;99.90
23885;DHT22;12123;53.088;7.392;2022-07-23T03:16:06;21.80;99.90
23885;DHT22;12123;53.088;7.392;2022-07-23T03:18:33;21.90;99.90
23885;DHT22;12123;53.088;7.392;2022-07-23T03:21:06;22.10;99.90
23885;DHT22;12123;53.088;7.392;2022-07-23T03:23:33;22.10;99.90
23885;DHT22;12123;53.088;7.392;2022-07-23T03:26:01;22.20;99.90
23885;DHT22;12123;53.088;7.392;2022-07-23T03:28:27;22.30;99.90
23885;DHT22;12123;53.088;7.392;2022-07-23T03:30:54;22.40;99.90
23885;DHT22;12123;53.088;7.392;2022-07-23T03:33:21;22.40;99.90
23885;DHT22;12123;53.088;7.392;2022-07-23T03:35:48;22.40;99.90
23885;DHT22;12123;53.088;7.392;2022-07-23T03:38:15;22.30;99.90
23885;DHT22;12123;53.088;7.392;2022-07-23T03:40:42;22.40;99.90
23885;DHT22;12123;53.088;7.392;2022-07-23T03:43:08;22.40;99.90
23885;DHT22;12123;53.088;7.392;2022-07-23T03:45:35;22.60;99.90
23885;DHT22;12123;53.088;7.392;2022-07-23T03:48:02;22.80;99.90
23885;DHT22;12123;53.088;7.392;2022-07-23T03:50:29;22.90;99.90
23885;DHT22;12123;53.088;7.392;2022-07-23T03:52:56;22.90;99.90
23885;DHT22;12123;53.088;7.392;2022-07-23T03:55:22;22.90;99.90
23885;DHT22;12123;53.088;7.392;2022-07-23T03:57:49;22.90;99.90
23885;DHT22;12123;53.088;7.392;2022-07-23T04:00:16;23.00;99.90
23885;DHT22;12123;53.088;7.392;2022-07-23T04:02:42;23.10;99.90
23885;DHT22;12123;53.088;7.392;2022-07-23T04:05:09;23.10;99.90
23885;DHT22;12123;53.088;7.392;2022-07-23T04:07:36;23.10;99.90
23885;DHT22;12123;53.088;7.392;2022-07-23T04:10:03;23.10;99.90
23885;DHT22;12123;53.088;7.392;2022-07-23T04:12:29;23.10;99.90
23885;DHT22;12123;53.088;7.392;2022-07-23T04:14:56;23.20;99.90
23885;DHT22;12123;53.088;7.392;2022-07-23T04:17:23;23.40;99.90
23885;DHT22;12123;53.088;7.392;2022-07-23T04:19:50;23.50;99.90
23885;DHT22;12123;53.088;7.392;2022-07-23T04:22:16;23.50;99.90
23885;DHT22;12123;53.088;7.392;2022-07-23T04:24:43;23.70;99.90
23885;DHT22;12123;53.088;7.392;2022-07-23T04:27:10;23.80;99.90
23885;DHT22;12123;53.088;7.392;2022-07-23T04:29:36;23.90;99.90
23885;DHT22;12123;53.088;7.392;2022-07-23T04:32:03;23.90;99.90
23885;DHT22;12123;53.088;7.392;2022-07-23T04:34:30;24.00;99.90
23885;DHT22;12123;53.088;7.392;2022-07-23T04:36:57;24.10;99.90
23885;DHT22;12123;53.088;7.392;2022-07-23T04:39:23;24.20;99.90
23885;DHT22;12123;53.088;7.392;2022-07-23T04:41:50;24.20;99.90
23885;DHT22;12123;53.088;7.392;2022-07-23T04:44:17;24.10;99.90
23885;DHT22;12123;53.088;7.392;2022-07-23T04:46:44;24.10;99.90
23885;DHT22;12123;53.088;7.392;2022-07-23T04:49:11;24.20;99.90
23885;DHT22;12123;53.088;7.392;2022-07-23T04:51:37;24.40;99.90
23885;DHT22;12123;53.088;7.392;2022-07-23T04:54:04;24.50;99.90
23885;DHT22;12123;53.088;7.392;2022-07-23T04:56:31;24.50;99.90
23885;DHT22;12123;53.088;7.392;2022-07-23T04:58:58;24.50;99.90
23885;DHT22;12123;53.088;7.392;2022-07-23T05:01:25;24.50;99.90
23885;DHT22;12123;53.088;7.392;2022-07-23T05:03:52;24.40;99.90
23885;DHT22;12123;53.088;7.392;2022-07-23T05:06:19;24.30;99.90
23885;DHT22;12123;53.088;7.392;2022-07-23T05:08:45;24.20;99.90
23885;DHT22;12123;53.088;7.392;2022-07-23T05:11:12;24.00;99.90
23885;DHT22;12123;53.088;7.392;2022-07-23T05:13:39;24.10;99.90
23885;DHT22;12123;53.088;7.392;2022-07-23T05:16:05;24.20;99.90
23885;DHT22;12123;53.088;7.392;2022-07-23T05:18:32;23.70;99.90
23885;DHT22;12123;53.088;7.392;2022-07-23T05:20:59;23.60;99.90
23885;DHT22;12123;53.088;7.392;2022-07-23T05:23:26;23.60;99.90
23885;DHT22;12123;53.088;7.392;2022-07-23T05:25:52;23.50;99.90
23885;DHT22;12123;53.088;7.392;2022-07-23T05:28:19;23.10;99.90
23885;DHT22;12123;53.088;7.392;2022-07-23T05:30:48;23.30;99.90
23885;DHT22;12123;53.088;7.392;2022-07-23T05:33:15;23.00;99.90
23885;DHT22;12123;53.088;7.392;2022-07-23T05:35:41;23.10;99.90
23885;DHT22;12123;53.088;7.392;2022-07-23T05:38:08;22.50;99.90
23885;DHT22;12123;53.088;7.392;2022-07-23T05:40:35;22.10;99.90
23885;DHT22;12123;53.088;7.392;2022-07-23T05:43:01;21.40;99.90
23885;DHT22;12123;53.088;7.392;2022-07-23T05:45:28;21.90;99.90
23885;DHT22;12123;53.088;7.392;2022-07-23T05:47:55;21.60;99.90
23885;DHT22;12123;53.088;7.392;2022-07-23T05:50:21;20.60;99.90
23885;DHT22;12123;53.088;7.392;2022-07-23T05:52:48;20.40;99.90
23885;DHT22;12123;53.088;7.392;2022-07-23T05:55:15;20.40;99.90
23885;DHT22;12123;53.088;7.392;2022-07-23T05:57:42;20.90;99.90
23885;DHT22;12123;53.088;7.392;2022-07-23T06:00:09;19.90;99.90
23885;DHT22;12123;53.088;7.392;2022-07-23T06:02:37;19.20;99.90
23885;DHT22;12123;53.088;7.392;2022-07-23T06:05:03;19.50;99.90
23885;DHT22;12123;53.088;7.392;2022-07-23T06:07:30;20.00;99.90
23885;DHT22;12123;53.088;7.392;2022-07-23T06:09:57;19.90;99.90
23885;DHT22;12123;53.088;7.392;2022-07-23T06:12:24;19.70;99.90
23885;DHT22;12123;53.088;7.392;2022-07-23T06:14:52;18.90;99.90
23885;DHT22;12123;53.088;7.392;2022-07-23T06:17:18;18.50;99.90
23885;DHT22;12123;53.088;7.392;2022-07-23T06:19:45;18.80;99.90
23885;DHT22;12123;53.088;7.392;2022-07-23T06:22:12;18.60;99.90
23885;DHT22;12123;53.088;7.392;2022-07-23T06:24:39;19.00;99.90
23885;DHT22;12123;53.088;7.392;2022-07-23T06:27:05;18.60;99.90
23885;DHT22;12123;53.088;7.392;2022-07-23T06:29:32;18.70;99.90
23885;DHT22;12123;53.088;7.392;2022-07-23T06:31:59;18.20;99.90
23885;DHT22;12123;53.088;7.392;2022-07-23T06:34:26;18.50;99.90
23885;DHT22;12123;53.088;7.392;2022-07-23T06:36:52;18.50;99.90
23885;DHT22;12123;53.088;7.392;2022-07-23T06:39:19;19.00;99.90
23885;DHT22;12123;53.088;7.392;2022-07-23T06:41:46;19.70;99.90
23885;DHT22;12123;53.088;7.392;2022-07-23T06:44:17;19.10;99.90
23885;DHT22;12123;53.088;7.392;2022-07-23T06:46:44;19.50;99.90
23885;DHT22;12123;53.088;7.392;2022-07-23T06:49:10;19.50;99.90
23885;DHT22;12123;53.088;7.392;2022-07-23T06:51:37;19.60;99.90
23885;DHT22;12123;53.088;7.392;2022-07-23T06:54:04;19.50;99.90
23885;DHT22;12123;53.088;7.392;2022-07-23T06:56:31;18.40;99.90
23885;DHT22;12123;53.088;7.392;2022-07-23T06:58:58;18.90;99.90
23885;DHT22;12123;53.088;7.392;2022-07-23T07:01:25;18.90;99.90
23885;DHT22;12123;53.088;7.392;2022-07-23T07:03:52;19.20;99.90
23885;DHT22;12123;53.088;7.392;2022-07-23T07:06:18;18.70;99.90
23885;DHT22;12123;53.088;7.392;2022-07-23T07:08:45;18.80;99.90
23885;DHT22;12123;53.088;7.392;2022-07-23T07:11:12;19.30;99.90
23885;DHT22;12123;53.088;7.392;2022-07-23T07:13:39;18.40;99.90
23885;DHT22;12123;53.088;7.392;2022-07-23T07:16:05;18.60;99.90
23885;DHT22;12123;53.088;7.392;2022-07-23T07:18:32;18.60;99.90
23885;DHT22;12123;53.088;7.392;2022-07-23T07:20:59;18.30;99.90
23885;DHT22;12123;53.088;7.392;2022-07-23T07:23:26;18.60;99.90
23885;DHT22;12123;53.088;7.392;2022-07-23T07:25:53;19.20;99.90
23885;DHT22;12123;53.088;7.392;2022-07-23T07:28:19;18.70;99.90
23885;DHT22;12123;53.088;7.392;2022-07-23T07:30:46;18.50;99.90
23885;DHT22;12123;53.088;7.392;2022-07-23T07:33:13;19.40;99.90
23885;DHT22;12123;53.088;7.392;2022-07-23T07:35:39;19.80;99.90
23885;DHT22;12123;53.088;7.392;2022-07-23T07:38:06;19.80;99.90
23885;DHT22;12123;53.088;7.392;2022-07-23T07:40:33;19.90;99.90
23885;DHT22;12123;53.088;7.392;2022-07-23T07:43:01;19.10;99.90
23885;DHT22;12123;53.088;7.392;2022-07-23T07:45:29;18.70;99.90
23885;DHT22;12123;53.088;7.392;2022-07-23T07:47:56;19.10;99.90
23885;DHT22;12123;53.088;7.392;2022-07-23T07:50:23;18.90;99.90
23885;DHT22;12123;53.088;7.392;2022-07-23T07:52:51;18.60;99.90
23885;DHT22;12123;53.088;7.392;2022-07-23T07:55:18;18.80;99.90
23885;DHT22;12123;53.088;7.392;2022-07-23T07:57:45;19.00;99.90
23885;DHT22;12123;53.088;7.392;2022-07-23T08:00:15;18.80;99.90
23885;DHT22;12123;53.088;7.392;2022-07-23T08:02:52;19.20;99.90
23885;DHT22;12123;53.088;7.392;2022-07-23T08:05:24;20.10;99.90
23885;DHT22;12123;53.088;7.392;2022-07-23T08:07:54;19.40;99.90
23885;DHT22;12123;53.088;7.392;2022-07-23T08:10:21;19.30;99.90
23885;DHT22;12123;53.088;7.392;2022-07-23T08:12:49;19.80;99.90
23885;DHT22;12123;53.088;7.392;2022-07-23T08:15:16;20.00;99.90
23885;DHT22;12123;53.088;7.392;2022-07-23T08:17:44;19.90;99.90
23885;DHT22;12123;53.088;7.392;2022-07-23T08:20:11;20.20;99.90
23885;DHT22;12123;53.088;7.392;2022-07-23T08:22:42;20.80;99.90
23885;DHT22;12123;53.088;7.392;2022-07-23T08:25:09;19.70;99.90
23885;DHT22;12123;53.088;7.392;2022-07-23T08:27:36;19.80;99.90
23885;DHT22;12123;53.088;7.392;2022-07-23T08:30:03;20.00;99.90
23885;DHT22;12123;53.088;7.392;2022-07-23T08:32:30;20.10;99.90
23885;DHT22;12123;53.088;7.392;2022-07-23T08:35:10;20.40;99.90
23885;DHT22;12123;53.088;7.392;2022-07-23T08:37:37;20.20;99.90
23885;DHT22;12123;53.088;7.392;2022-07-23T08:40:04;19.60;10.50
23885;DHT22;12123;53.088;7.392;2022-07-23T08:42:31;19.10;99.90
23885;DHT22;12123;53.088;7.392;2022-07-23T08:45:02;18.80;99.90
23885;DHT22;12123;53.088;7.392;2022-07-23T08:47:29;19.10;99.90
23885;DHT22;12123;53.088;7.392;2022-07-23T08:49:56;19.70;99.90
23885;DHT22;12123;53.088;7.392;2022-07-23T08:52:25;20.30;99.90
23885;DHT22;12123;53.088;7.392;2022-07-23T08:54:54;19.30;99.90
23885;DHT22;12123;53.088;7.392;2022-07-23T08:57:21;19.10;11.50
23885;DHT22;12123;53.088;7.392;2022-07-23T08:59:48;19.10;99.90
23885;DHT22;12123;53.088;7.392;2022-07-23T09:02:14;19.50;99.90
23885;DHT22;12123;53.088;7.392;2022-07-23T09:04:41;19.40;99.90
23885;DHT22;12123;53.088;7.392;2022-07-23T09:07:08;19.20;99.90
23885;DHT22;12123;53.088;7.392;2022-07-23T09:09:35;18.60;1.00
23885;DHT22;12123;53.088;7.392;2022-07-23T09:12:02;18.50;99.90
23885;DHT22;12123;53.088;7.392;2022-07-23T09:14:40;18.90;99.90
23885;DHT22;12123;53.088;7.392;2022-07-23T09:17:11;19.50;75.70
23885;DHT22;12123;53.088;7.392;2022-07-23T09:19:39;19.30;95.20
23885;DHT22;12123;53.088;7.392;2022-07-23T09:22:19;19.30;99.90
23885;DHT22;12123;53.088;7.392;2022-07-23T09:30:24;19.20;99.90
23885;DHT22;12123;53.088;7.392;2022-07-23T09:35:43;20.30;99.90
23885;DHT22;12123;53.088;7.392;2022-07-23T09:38:10;20.00;99.90
23885;DHT22;12123;53.088;7.392;2022-07-23T09:40:37;19.30;99.90
23885;DHT22;12123;53.088;7.392;2022-07-23T09:43:03;20.80;1.00
23885;DHT22;12123;53.088;7.392;2022-07-23T09:45:30;23.20;99.90
23885;DHT22;12123;53.088;7.392;2022-07-23T09:48:10;24.10;99.90
23885;DHT22;12123;53.088;7.392;2022-07-23T09:50:38;21.10;99.90
23885;DHT22;12123;53.088;7.392;2022-07-23T09:53:04;21.30;99.90
23885;DHT22;12123;53.088;7.392;2022-07-23T09:55:33;23.10;99.90
23885;DHT22;12123;53.088;7.392;2022-07-23T09:58:05;20.60;99.90
23885;DHT22;12123;53.088;7.392;2022-07-23T10:00:32;20.30;99.90
23885;DHT22;12123;53.088;7.392;2022-07-23T10:02:59;20.30;99.90
23885;DHT22;12123;53.088;7.392;2022-07-23T10:05:28;21.50;99.90
23885;DHT22;12123;53.088;7.392;2022-07-23T10:07:55;24.20;99.90
23885;DHT22;12123;53.088;7.392;2022-07-23T10:10:22;21.80;99.90
23885;DHT22;12123;53.088;7.392;2022-07-23T10:12:52;23.10;99.90
23885;DHT22;12123;53.088;7.392;2022-07-23T10:15:25;21.20;99.90
23885;DHT22;12123;53.088;7.392;2022-07-23T10:17:52;20.20;99.90
23885;DHT22;12123;53.088;7.392;2022-07-23T10:20:19;19.80;1.00
23885;DHT22;12123;53.088;7.392;2022-07-23T10:23:06;20.00;99.90
23885;DHT22;12123;53.088;7.392;2022-07-23T10:28:06;21.30;99.90
23885;DHT22;12123;53.088;7.392;2022-07-23T10:33:32;22.40;99.90
23885;DHT22;12123;53.088;7.392;2022-07-23T10:36:09;24.50;99.90
23885;DHT22;12123;53.088;7.392;2022-07-23T10:41:31;23.90;99.90
23885;DHT22;12123;53.088;7.392;2022-07-23T10:46:56;20.70;99.90
23885;DHT22;12123;53.088;7.392;2022-07-23T10:49:30;20.50;99.90
23885;DHT22;12123;53.088;7.392;2022-07-23T10:57:07;20.60;99.90
23885;DHT22;12123;53.088;7.392;2022-07-23T11:02:20;22.10;99.90
23885;DHT22;12123;53.088;7.392;2022-07-23T11:04:47;21.40;99.90
23885;DHT22;12123;53.088;7.392;2022-07-23T11:07:15;20.60;99.90
23885;DHT22;12123;53.088;7.392;2022-07-23T11:09:47;21.20;99.90
23885;DHT22;12123;53.088;7.392;2022-07-23T11:15:06;21.90;99.90
23885;DHT22;12123;53.088;7.392;2022-07-23T11:22:36;23.00;75.80
23885;DHT22;12123;53.088;7.392;2022-07-23T11:25:03;25.60;67.30
23885;DHT22;12123;53.088;7.392;2022-07-23T11:27:45;24.30;60.60
23885;DHT22;12123;53.088;7.392;2022-07-23T11:32:54;23.00;64.90
23885;DHT22;12123;53.088;7.392;2022-07-23T11:35:43;22.00;57.40
23885;DHT22;12123;53.088;7.392;2022-07-23T11:40:47;22.50;47.80
23885;DHT22;12123;53.088;7.392;2022-07-23T11:43:15;22.30;54.50
23885;DHT22;12123;53.088;7.392;2022-07-23T11:45:46;21.70;63.30
23885;DHT22;12123;53.088;7.392;2022-07-23T11:48:17;22.30;70.90
23885;DHT22;12123;53.088;7.392;2022-07-23T11:50:44;25.00;61.30
23885;DHT22;12123;53.088;7.392;2022-07-23T11:53:11;23.40;39.70
23885;DHT22;12123;53.088;7.392;2022-07-23T11:55:38;23.80;24.80
23885;DHT22;12123;53.088;7.392;2022-07-23T11:58:05;24.80;29.10
23885;DHT22;12123;53.088;7.392;2022-07-23T12:00:32;23.20;22.20
23885;DHT22;12123;53.088;7.392;2022-07-23T12:03:06;21.80;23.10
23885;DHT22;12123;53.088;7.392;2022-07-23T12:05:34;21.00;42.70
23885;DHT22;12123;53.088;7.392;2022-07-23T12:08:10;21.00;62.40
23885;DHT22;12123;53.088;7.392;2022-07-23T12:10:39;20.40;74.90
23885;DHT22;12123;53.088;7.392;2022-07-23T12:13:19;21.90;91.50
23885;DHT22;12123;53.088;7.392;2022-07-23T12:15:47;22.00;45.00
23885;DHT22;12123;53.088;7.392;2022-07-23T12:18:16;21.70;68.20
23885;DHT22;12123;53.088;7.392;2022-07-23T12:20:43;20.80;75.10
23885;DHT22;12123;53.088;7.392;2022-07-23T12:23:12;21.40;81.70
23885;DHT22;12123;53.088;7.392;2022-07-23T12:25:46;22.70;72.50
23885;DHT22;12123;53.088;7.392;2022-07-23T12:28:15;22.70;45.00
23885;DHT22;12123;53.088;7.392;2022-07-23T12:33:09;20.90;56.60
23885;DHT22;12123;53.088;7.392;2022-07-23T12:35:37;22.70;57.70
23885;DHT22;12123;53.088;7.392;2022-07-23T12:38:05;22.70;35.80
23885;DHT22;12123;53.088;7.392;2022-07-23T12:43:00;22.80;70.10
23885;DHT22;12123;53.088;7.392;2022-07-23T12:45:28;21.30;62.30
23885;DHT22;12123;53.088;7.392;2022-07-23T12:55:31;22.00;76.00
23885;DHT22;12123;53.088;7.392;2022-07-23T12:58:18;23.00;88.50
23885;DHT22;12123;53.088;7.392;2022-07-23T13:00:52;21.90;81.20
23885;DHT22;12123;53.088;7.392;2022-07-23T13:03:28;21.40;93.50
23885;DHT22;12123;53.088;7.392;2022-07-23T13:05:55;21.10;99.90
23885;DHT22;12123;53.088;7.392;2022-07-23T13:08:23;21.60;99.90
23885;DHT22;12123;53.088;7.392;2022-07-23T13:10:50;22.00;99.90
23885;DHT22;12123;53.088;7.392;2022-07-23T13:13:24;22.20;99.90
23885;DHT22;12123;53.088;7.392;2022-07-23T13:15:56;22.70;90.70
23885;DHT22;12123;53.088;7.392;2022-07-23T13:18:23;22.90;62.30
23885;DHT22;12123;53.088;7.392;2022-07-23T13:20:51;23.40;52.80
23885;DHT22;12123;53.088;7.392;2022-07-23T13:23:18;23.90;57.90
23885;DHT22;12123;53.088;7.392;2022-07-23T13:25:45;26.40;47.90
23885;DHT22;12123;53.088;7.392;2022-07-23T13:28:12;24.10;28.40
23885;DHT22;12123;53.088;7.392;2022-07-23T13:30:39;21.30;53.50
23885;DHT22;12123;53.088;7.392;2022-07-23T13:33:07;22.40;65.60
23885;DHT22;12123;53.088;7.392;2022-07-23T13:35:35;21.60;89.20
23885;DHT22;12123;53.088;7.392;2022-07-23T13:38:02;23.00;70.10
23885;DHT22;12123;53.088;7.392;2022-07-23T13:40:33;22.60;45.80
23885;DHT22;12123;53.088;7.392;2022-07-23T13:43:00;20.60;94.70
23885;DHT22;12123;53.088;7.392;2022-07-23T13:45:27;20.90;99.90
23885;DHT22;12123;53.088;7.392;2022-07-23T13:47:55;21.60;99.90
23885;DHT22;12123;53.088;7.392;2022-07-23T13:50:22;22.70;99.90
23885;DHT22;12123;53.088;7.392;2022-07-23T13:52:53;24.80;90.70
23885;DHT22;12123;53.088;7.392;2022-07-23T13:55:20;22.10;79.80
23885;DHT22;12123;53.088;7.392;2022-07-23T13:57:47;21.70;99.90
23885;DHT22;12123;53.088;7.392;2022-07-23T14:00:14;22.30;99.90
23885;DHT22;12123;53.088;7.392;2022-07-23T14:03:00;22.10;99.90
23885;DHT22;12123;53.088;7.392;2022-07-23T14:05:27;23.80;96.20
23885;DHT22;12123;53.088;7.392;2022-07-23T14:07:54;22.40;74.90
23885;DHT22;12123;53.088;7.392;2022-07-23T14:10:21;21.90;99.90
23885;DHT22;12123;53.088;7.392;2022-07-23T14:12:49;22.30;93.70
23885;DHT22;12123;53.088;7.392;2022-07-23T14:15:16;23.50;95.00
23885;DHT22;12123;53.088;7.392;2022-07-23T14:17:44;24.10;42.20
23885;DHT22;12123;53.088;7.392;2022-07-23T14:20:13;24.60;50.80
23885;DHT22;12123;53.088;7.392;2022-07-23T14:22:40;22.90;72.20
23885;DHT22;12123;53.088;7.392;2022-07-23T14:25:07;24.40;49.50
23885;DHT22;12123;53.088;7.392;2022-07-23T14:27:35;24.30;36.40
23885;DHT22;12123;53.088;7.392;2022-07-23T14:30:04;24.60;52.30
23885;DHT22;12123;53.088;7.392;2022-07-23T14:32:32;25.20;28.90
23885;DHT22;12123;53.088;7.392;2022-07-23T14:34:59;26.00;25.10
23885;DHT22;12123;53.088;7.392;2022-07-23T14:37:28;24.50;18.40
23885;DHT22;12123;53.088;7.392;2022-07-23T14:39:57;24.10;15.20
23885;DHT22;12123;53.088;7.392;2022-07-23T14:42:24;26.50;22.80
23885;DHT22;12123;53.088;7.392;2022-07-23T14:44:51;25.80;12.90
23885;DHT22;12123;53.088;7.392;2022-07-23T14:47:17;26.20;6.60
23885;DHT22;12123;53.088;7.392;2022-07-23T14:49:47;27.40;1.00
23885;DHT22;12123;53.088;7.392;2022-07-23T14:52:14;26.30;1.00
23885;DHT22;12123;53.088;7.392;2022-07-23T14:54:41;25.30;1.00
23885;DHT22;12123;53.088;7.392;2022-07-23T14:57:08;24.60;1.00
23885;DHT22;12123;53.088;7.392;2022-07-23T14:59:36;25.00;1.00
23885;DHT22;12123;53.088;7.392;2022-07-23T15:02:03;26.50;5.30
23885;DHT22;12123;53.088;7.392;2022-07-23T15:04:30;27.40;1.00
23885;DHT22;12123;53.088;7.392;2022-07-23T15:07:04;26.00;1.00
23885;DHT22;12123;53.088;7.392;2022-07-23T15:09:31;25.20;1.00
23885;DHT22;12123;53.088;7.392;2022-07-23T15:11:58;25.80;1.00
23885;DHT22;12123;53.088;7.392;2022-07-23T15:14:25;24.80;1.00
23885;DHT22;12123;53.088;7.392;2022-07-23T15:17:00;23.60;1.00
23885;DHT22;12123;53.088;7.392;2022-07-23T15:19:26;23.70;1.00
23885;DHT22;12123;53.088;7.392;2022-07-23T15:21:56;26.20;1.00
23885;DHT22;12123;53.088;7.392;2022-07-23T15:24:23;24.10;1.00
23885;DHT22;12123;53.088;7.392;2022-07-23T15:26:49;24.00;1.00
23885;DHT22;12123;53.088;7.392;2022-07-23T15:29:16;26.80;6.80
23885;DHT22;12123;53.088;7.392;2022-07-23T15:31:46;27.80;1.00
23885;DHT22;12123;53.088;7.392;2022-07-23T15:34:18;27.10;1.00
23885;DHT22;12123;53.088;7.392;2022-07-23T15:36:45;25.40;1.00
23885;DHT22;12123;53.088;7.392;2022-07-23T15:39:12;24.40;1.00
23885;DHT22;12123;53.088;7.392;2022-07-23T15:41:39;25.20;1.00
23885;DHT22;12123;53.088;7.392;2022-07-23T15:44:09;26.50;1.00
23885;DHT22;12123;53.088;7.392;2022-07-23T15:46:56;26.90;1.00
23885;DHT22;12123;53.088;7.392;2022-07-23T15:49:22;25.90;1.00
23885;DHT22;12123;53.088;7.392;2022-07-23T15:51:50;22.50;1.00
23885;DHT22;12123;53.088;7.392;2022-07-23T15:54:16;24.30;16.90
23885;DHT22;12123;53.088;7.392;2022-07-23T15:56:43;23.40;2.40
23885;DHT22;12123;53.088;7.392;2022-07-23T15:59:10;22.90;4.10
23885;DHT22;12123;53.088;7.392;2022-07-23T16:01:37;22.60;29.70
23885;DHT22;12123;53.088;7.392;2022-07-23T16:04:04;23.20;47.50
23885;DHT22;12123;53.088;7.392;2022-07-23T16:06:31;24.10;34.90
23885;DHT22;12123;53.088;7.392;2022-07-23T16:08:59;24.20;18.20
23885;DHT22;12123;53.088;7.392;2022-07-23T16:11:30;23.50;15.60
23885;DHT22;12123;53.088;7.392;2022-07-23T16:13:57;23.90;19.70
23885;DHT22;12123;53.088;7.392;2022-07-23T16:16:24;24.30;20.80
23885;DHT22;12123;53.088;7.392;2022-07-23T16:18:53;23.00;15.50
23885;DHT22;12123;53.088;7.392;2022-07-23T16:21:20;23.20;37.90
23885;DHT22;12123;53.088;7.392;2022-07-23T16:23:46;23.00;46.30
23885;DHT22;12123;53.088;7.392;2022-07-23T16:26:13;23.80;64.10
23885;DHT22;12123;53.088;7.392;2022-07-23T16:28:40;22.40;36.70
23885;DHT22;12123;53.088;7.392;2022-07-23T16:31:07;22.40;84.00